sensor_id;sensor_type;location;lat;lon;timestamp;temperature;humidity
7876;DHT22;69649;53.712;9.680;2024-01-15T00:00:10;0.60;83.30
7876;DHT22;69649;53.712;9.680;2024-01-15T00:02:36;0.60;83.20
7876;DHT22;69649;53.712;9.680;2024-01-15T00:05:01;0.60;83.20
7876;DHT22;69649;53.712;9.680;2024-01-15T00:07:27;0.60;83.20
7876;DHT22;69649;53.712;9.680;2024-01-15T00:09:53;0.60;83.40
7876;DHT22;69649;53.712;9.680;2024-01-15T00:12:19;0.60;83.60
7876;DHT22;69649;53.712;9.680;2024-01-15T00:14:45;0.60;83.60
7876;DHT22;69649;53.712;9.680;2024-01-15T00:17:10;0.60;83.70
7876;DHT22;69649;53.712;9.680;2024-01-15T00:19:36;0.60;83.90
7876;DHT22;69649;53.712;9.680;2024-01-15T00:22:02;0.60;83.90
7876;DHT22;69649;53.712;9.680;2024-01-15T00:24:27;0.60;84.00
7876;DHT22;69649;53.712;9.680;2024-01-15T00:26:53;0.60;84.00
7876;DHT22;69649;53.712;9.680;2024-01-15T00:29:19;0.50;84.00
7876;DHT22;69649;53.712;9.680;2024-01-15T00:31:45;0.40;84.10
7876;DHT22;69649;53.712;9.680;2024-01-15T00:34:10;0.50;84.20
7876;DHT22;69649;53.712;9.680;2024-01-15T00:36:36;0.50;84.30
7876;DHT22;69649;53.712;9.680;2024-01-15T00:39:02;0.50;84.20
7876;DHT22;69649;53.712;9.680;2024-01-15T00:41:31;0.50;84.20
7876;DHT22;69649;53.712;9.680;2024-01-15T00:43:56;0.50;84.30
7876;DHT22;69649;53.712;9.680;2024-01-15T00:46:23;0.60;84.20
7876;DHT22;69649;53.712;9.680;2024-01-15T00:48:48;0.50;84.20
7876;DHT22;69649;53.712;9.680;2024-01-15T00:51:14;0.50;84.40
7876;DHT22;69649;53.712;9.680;2024-01-15T00:53:40;0.50;84.60
7876;DHT22;69649;53.712;9.680;2024-01-15T00:56:06;0.50;84.60
7876;DHT22;69649;53.712;9.680;2024-01-15T00:58:32;0.50;84.50
7876;DHT22;69649;53.712;9.680;2024-01-15T01:01:17;0.50;84.50
7876;DHT22;69649;53.712;9.680;2024-01-15T01:03:43;0.50;84.50
7876;DHT22;69649;53.712;9.680;2024-01-15T01:06:09;0.50;84.50
7876;DHT22;69649;53.712;9.680;2024-01-15T01:08:34;0.50;84.50
7876;DHT22;69649;53.712;9.680;2024-01-15T01:11:00;0.60;84.30
7876;DHT22;69649;53.712;9.680;2024-01-15T01:13:26;0.60;84.30
7876;DHT22;69649;53.712;9.680;2024-01-15T01:15:52;0.70;84.20
7876;DHT22;69649;53.712;9.680;2024-01-15T01:18:17;0.60;84.00
7876;DHT22;69649;53.712;9.680;2024-01-15T01:20:43;0.80;83.90
7876;DHT22;69649;53.712;9.680;2024-01-15T01:23:09;0.80;83.80
7876;DHT22;69649;53.712;9.680;2024-01-15T01:25:34;0.80;83.60
7876;DHT22;69649;53.712;9.680;2024-01-15T01:28:00;0.80;83.70
7876;DHT22;69649;53.712;9.680;2024-01-15T01:30:26;0.90;83.60
7876;DHT22;69649;53.712;9.680;2024-01-15T01:33:11;1.00;83.50
7876;DHT22;69649;53.712;9.680;2024-01-15T01:35:37;1.00;83.40
7876;DHT22;69649;53.712;9.680;2024-01-15T01:38:03;0.90;83.40
7876;DHT22;69649;53.712;9.680;2024-01-15T01:40:29;0.90;83.40
7876;DHT22;69649;53.712;9.680;2024-01-15T01:42:55;0.90;83.40
7876;DHT22;69649;53.712;9.680;2024-01-15T01:45:20;1.00;83.40
7876;DHT22;69649;53.712;9.680;2024-01-15T01:47:46;1.00;83.40
7876;DHT22;69649;53.712;9.680;2024-01-15T01:50:13;1.10;83.40
7876;DHT22;69649;53.712;9.680;2024-01-15T01:52:39;1.20;83.20
7876;DHT22;69649;53.712;9.680;2024-01-15T01:55:06;1.40;83.20
7876;DHT22;69649;53.712;9.680;2024-01-15T01:57:34;1.40;83.00
7876;DHT22;69649;53.712;9.680;2024-01-15T02:00:02;1.40;82.80
7876;DHT22;69649;53.712;9.680;2024-01-15T02:02:31;1.40;82.70
7876;DHT22;69649;53.712;9.680;2024-01-15T02:04:56;1.40;82.80
7876;DHT22;69649;53.712;9.680;2024-01-15T02:07:22;1.40;82.90
7876;DHT22;69649;53.712;9.680;2024-01-15T02:09:49;1.40;82.60
7876;DHT22;69649;53.712;9.680;2024-01-15T02:12:15;1.20;82.70
7876;DHT22;69649;53.712;9.680;2024-01-15T02:14:41;1.20;82.90
7876;DHT22;69649;53.712;9.680;2024-01-15T02:17:07;1.40;82.90
7876;DHT22;69649;53.712;9.680;2024-01-15T02:19:32;1.40;82.80
7876;DHT22;69649;53.712;9.680;2024-01-15T02:21:58;1.40;82.80
7876;DHT22;69649;53.712;9.680;2024-01-15T02:24:24;1.30;82.80
7876;DHT22;69649;53.712;9.680;2024-01-15T02:26:50;1.30;82.70
7876;DHT22;69649;53.712;9.680;2024-01-15T02:29:17;1.20;82.90
7876;DHT22;69649;53.712;9.680;2024-01-15T02:31:43;1.30;82.80
7876;DHT22;69649;53.712;9.680;2024-01-15T02:34:09;1.30;82.70
7876;DHT22;69649;53.712;9.680;2024-01-15T02:36:34;1.30;82.80
7876;DHT22;69649;53.712;9.680;2024-01-15T02:39:00;1.20;82.70
7876;DHT22;69649;53.712;9.680;2024-01-15T02:41:26;1.20;83.00
7876;DHT22;69649;53.712;9.680;2024-01-15T02:43:52;1.20;83.00
7876;DHT22;69649;53.712;9.680;2024-01-15T02:46:18;1.30;82.90
7876;DHT22;69649;53.712;9.680;2024-01-15T02:48:43;1.30;82.70
7876;DHT22;69649;53.712;9.680;2024-01-15T02:51:09;1.30;82.60
7876;DHT22;69649;53.712;9.680;2024-01-15T02:53:36;1.40;82.40
7876;DHT22;69649;53.712;9.680;2024-01-15T02:56:03;1.40;82.20
7876;DHT22;69649;53.712;9.680;2024-01-15T02:58:29;1.50;81.60
7876;DHT22;69649;53.712;9.680;2024-01-15T03:00:55;1.60;81.20
7876;DHT22;69649;53.712;9.680;2024-01-15T03:03:20;1.60;80.60
7876;DHT22;69649;53.712;9.680;2024-01-15T03:05:46;1.60;80.20
7876;DHT22;69649;53.712;9.680;2024-01-15T03:08:12;1.70;79.90
7876;DHT22;69649;53.712;9.680;2024-01-15T03:10:38;1.70;79.60
7876;DHT22;69649;53.712;9.680;2024-01-15T03:13:04;1.60;79.70
7876;DHT22;69649;53.712;9.680;2024-01-15T03:15:29;1.70;79.70
7876;DHT22;69649;53.712;9.680;2024-01-15T03:17:55;1.70;79.60
7876;DHT22;69649;53.712;9.680;2024-01-15T03:20:21;1.60;79.70
7876;DHT22;69649;53.712;9.680;2024-01-15T03:22:47;1.60;79.50
7876;DHT22;69649;53.712;9.680;2024-01-15T03:25:12;1.70;79.50
7876;DHT22;69649;53.712;9.680;2024-01-15T03:27:38;1.70;79.20
7876;DHT22;69649;53.712;9.680;2024-01-15T03:30:24;1.60;78.70
7876;DHT22;69649;53.712;9.680;2024-01-15T03:32:49;1.60;78.60
7876;DHT22;69649;53.712;9.680;2024-01-15T03:35:15;1.60;78.50
7876;DHT22;69649;53.712;9.680;2024-01-15T03:37:41;1.60;78.50
7876;DHT22;69649;53.712;9.680;2024-01-15T03:40:08;1.50;78.60
7876;DHT22;69649;53.712;9.680;2024-01-15T03:42:34;1.50;78.70
7876;DHT22;69649;53.712;9.680;2024-01-15T03:44:59;1.50;78.60
7876;DHT22;69649;53.712;9.680;2024-01-15T03:47:26;1.50;78.60
7876;DHT22;69649;53.712;9.680;2024-01-15T03:49:51;1.40;78.50
7876;DHT22;69649;53.712;9.680;2024-01-15T03:52:17;1.40;78.30
7876;DHT22;69649;53.712;9.680;2024-01-15T03:54:43;1.40;78.10
7876;DHT22;69649;53.712;9.680;2024-01-15T03:57:09;1.50;78.00
7876;DHT22;69649;53.712;9.680;2024-01-15T03:59:34;1.50;77.80
7876;DHT22;69649;53.712;9.680;2024-01-15T04:02:00;1.50;77.80
7876;DHT22;69649;53.712;9.680;2024-01-15T04:04:26;1.60;77.60
7876;DHT22;69649;53.712;9.680;2024-01-15T04:06:51;1.60;77.70
7876;DHT22;69649;53.712;9.680;2024-01-15T04:09:17;1.60;77.80
7876;DHT22;69649;53.712;9.680;2024-01-15T04:11:49;1.60;77.70
7876;DHT22;69649;53.712;9.680;2024-01-15T04:14:15;1.60;78.00
7876;DHT22;69649;53.712;9.680;2024-01-15T04:16:41;1.70;78.00
7876;DHT22;69649;53.712;9.680;2024-01-15T04:19:07;1.70;78.10
7876;DHT22;69649;53.712;9.680;2024-01-15T04:21:32;1.70;78.10
7876;DHT22;69649;53.712;9.680;2024-01-15T04:23:58;1.80;78.10
7876;DHT22;69649;53.712;9.680;2024-01-15T04:26:24;1.80;78.00
7876;DHT22;69649;53.712;9.680;2024-01-15T04:28:50;1.80;78.00
7876;DHT22;69649;53.712;9.680;2024-01-15T04:31:25;1.90;77.60
7876;DHT22;69649;53.712;9.680;2024-01-15T04:33:52;2.00;77.50
7876;DHT22;69649;53.712;9.680;2024-01-15T04:36:18;2.00;77.20
7876;DHT22;69649;53.712;9.680;2024-01-15T04:38:44;2.00;77.00
7876;DHT22;69649;53.712;9.680;2024-01-15T04:41:13;2.00;77.10
7876;DHT22;69649;53.712;9.680;2024-01-15T04:43:40;2.00;77.00
7876;DHT22;69649;53.712;9.680;2024-01-15T04:46:06;2.00;77.10
7876;DHT22;69649;53.712;9.680;2024-01-15T04:48:33;2.00;76.90
7876;DHT22;69649;53.712;9.680;2024-01-15T04:54:06;2.10;76.50
7876;DHT22;69649;53.712;9.680;2024-01-15T04:56:32;2.10;76.20
7876;DHT22;69649;53.712;9.680;2024-01-15T04:58:57;2.10;76.10
7876;DHT22;69649;53.712;9.680;2024-01-15T05:01:23;2.10;75.60
7876;DHT22;69649;53.712;9.680;2024-01-15T05:03:49;2.10;75.70
7876;DHT22;69649;53.712;9.680;2024-01-15T05:06:15;2.10;75.30
7876;DHT22;69649;53.712;9.680;2024-01-15T05:08:41;2.20;75.10
7876;DHT22;69649;53.712;9.680;2024-01-15T05:11:06;2.20;75.00
7876;DHT22;69649;53.712;9.680;2024-01-15T05:13:32;2.20;75.00
7876;DHT22;69649;53.712;9.680;2024-01-15T05:15:58;2.20;75.10
7876;DHT22;69649;53.712;9.680;2024-01-15T05:18:24;2.20;75.20
7876;DHT22;69649;53.712;9.680;2024-01-15T05:20:50;2.20;74.90
7876;DHT22;69649;53.712;9.680;2024-01-15T05:23:17;2.20;75.10
7876;DHT22;69649;53.712;9.680;2024-01-15T05:25:43;2.20;75.30
7876;DHT22;69649;53.712;9.680;2024-01-15T05:28:09;2.20;75.30
7876;DHT22;69649;53.712;9.680;2024-01-15T05:30:35;2.20;75.50
7876;DHT22;69649;53.712;9.680;2024-01-15T05:33:00;2.10;75.90
7876;DHT22;69649;53.712;9.680;2024-01-15T05:35:26;2.20;76.10
7876;DHT22;69649;53.712;9.680;2024-01-15T05:37:52;2.30;76.10
7876;DHT22;69649;53.712;9.680;2024-01-15T05:40:18;2.30;75.50
7876;DHT22;69649;53.712;9.680;2024-01-15T05:42:43;2.30;75.00
7876;DHT22;69649;53.712;9.680;2024-01-15T05:45:09;2.30;73.90
7876;DHT22;69649;53.712;9.680;2024-01-15T05:47:35;2.30;73.50
7876;DHT22;69649;53.712;9.680;2024-01-15T05:50:01;2.20;73.40
7876;DHT22;69649;53.712;9.680;2024-01-15T05:52:27;2.20;73.60
7876;DHT22;69649;53.712;9.680;2024-01-15T05:54:53;2.30;73.30
7876;DHT22;69649;53.712;9.680;2024-01-15T05:57:19;2.20;72.60
7876;DHT22;69649;53.712;9.680;2024-01-15T05:59:45;2.20;71.50
7876;DHT22;69649;53.712;9.680;2024-01-15T06:02:11;2.20;71.40
7876;DHT22;69649;53.712;9.680;2024-01-15T06:04:37;2.20;71.10
7876;DHT22;69649;53.712;9.680;2024-01-15T06:07:03;2.20;70.90
7876;DHT22;69649;53.712;9.680;2024-01-15T06:09:29;2.20;70.70
7876;DHT22;69649;53.712;9.680;2024-01-15T06:11:55;2.10;70.50
7876;DHT22;69649;53.712;9.680;2024-01-15T06:14:20;2.10;70.40
7876;DHT22;69649;53.712;9.680;2024-01-15T06:16:46;2.10;70.50
7876;DHT22;69649;53.712;9.680;2024-01-15T06:19:12;2.10;70.60
7876;DHT22;69649;53.712;9.680;2024-01-15T06:21:38;2.10;71.00
7876;DHT22;69649;53.712;9.680;2024-01-15T06:24:04;2.10;71.20
7876;DHT22;69649;53.712;9.680;2024-01-15T06:26:30;2.00;71.80
7876;DHT22;69649;53.712;9.680;2024-01-15T06:29:15;2.50;72.00
7876;DHT22;69649;53.712;9.680;2024-01-15T06:31:41;2.30;71.10
7876;DHT22;69649;53.712;9.680;2024-01-15T06:34:07;2.20;71.10
7876;DHT22;69649;53.712;9.680;2024-01-15T06:36:32;2.20;71.50
7876;DHT22;69649;53.712;9.680;2024-01-15T06:38:58;2.10;71.50
7876;DHT22;69649;53.712;9.680;2024-01-15T06:41:24;2.10;71.80
7876;DHT22;69649;53.712;9.680;2024-01-15T06:43:51;2.10;71.90
7876;DHT22;69649;53.712;9.680;2024-01-15T06:46:22;2.10;72.50
7876;DHT22;69649;53.712;9.680;2024-01-15T06:48:48;2.10;72.60
7876;DHT22;69649;53.712;9.680;2024-01-15T06:51:15;2.10;72.70
7876;DHT22;69649;53.712;9.680;2024-01-15T06:53:42;2.10;72.80
7876;DHT22;69649;53.712;9.680;2024-01-15T06:56:08;2.00;73.00
7876;DHT22;69649;53.712;9.680;2024-01-15T06:58:34;2.00;73.30
7876;DHT22;69649;53.712;9.680;2024-01-15T07:01:00;2.00;73.20
7876;DHT22;69649;53.712;9.680;2024-01-15T07:03:25;2.00;73.30
7876;DHT22;69649;53.712;9.680;2024-01-15T07:05:51;2.00;73.40
7876;DHT22;69649;53.712;9.680;2024-01-15T07:08:17;2.00;73.50
7876;DHT22;69649;53.712;9.680;2024-01-15T07:10:43;1.90;73.20
7876;DHT22;69649;53.712;9.680;2024-01-15T07:13:09;1.90;72.50
7876;DHT22;69649;53.712;9.680;2024-01-15T07:15:35;2.00;72.20
7876;DHT22;69649;53.712;9.680;2024-01-15T07:18:00;2.00;71.80
7876;DHT22;69649;53.712;9.680;2024-01-15T07:20:26;1.90;71.30
7876;DHT22;69649;53.712;9.680;2024-01-15T07:22:52;2.00;71.80
7876;DHT22;69649;53.712;9.680;2024-01-15T07:25:18;1.90;71.60
7876;DHT22;69649;53.712;9.680;2024-01-15T07:27:43;2.00;71.80
7876;DHT22;69649;53.712;9.680;2024-01-15T07:32:58;1.90;72.10
7876;DHT22;69649;53.712;9.680;2024-01-15T07:35:23;1.90;72.40
7876;DHT22;69649;53.712;9.680;2024-01-15T07:37:49;1.90;72.30
7876;DHT22;69649;53.712;9.680;2024-01-15T07:40:15;1.80;72.70
7876;DHT22;69649;53.712;9.680;2024-01-15T07:42:42;1.90;72.80
7876;DHT22;69649;53.712;9.680;2024-01-15T07:45:10;1.90;72.90
7876;DHT22;69649;53.712;9.680;2024-01-15T07:47:36;2.00;73.10
7876;DHT22;69649;53.712;9.680;2024-01-15T07:50:22;1.90;73.20
7876;DHT22;69649;53.712;9.680;2024-01-15T07:52:48;1.90;73.50
7876;DHT22;69649;53.712;9.680;2024-01-15T07:55:14;1.90;73.90
7876;DHT22;69649;53.712;9.680;2024-01-15T07:57:40;2.00;74.50
7876;DHT22;69649;53.712;9.680;2024-01-15T08:00:08;1.90;74.30
7876;DHT22;69649;53.712;9.680;2024-01-15T08:02:34;1.90;74.60
7876;DHT22;69649;53.712;9.680;2024-01-15T08:05:00;2.00;74.70
7876;DHT22;69649;53.712;9.680;2024-01-15T08:07:26;1.90;74.60
7876;DHT22;69649;53.712;9.680;2024-01-15T08:09:52;1.90;74.80
7876;DHT22;69649;53.712;9.680;2024-01-15T08:12:18;1.90;75.00
7876;DHT22;69649;53.712;9.680;2024-01-15T08:14:44;1.90;75.20
7876;DHT22;69649;53.712;9.680;2024-01-15T08:17:11;1.90;75.40
7876;DHT22;69649;53.712;9.680;2024-01-15T08:19:36;2.10;76.60
7876;DHT22;69649;53.712;9.680;2024-01-15T08:22:03;2.00;75.80
7876;DHT22;69649;53.712;9.680;2024-01-15T08:24:28;1.90;76.00
7876;DHT22;69649;53.712;9.680;2024-01-15T08:26:54;2.40;77.50
7876;DHT22;69649;53.712;9.680;2024-01-15T08:29:21;2.20;75.10
7876;DHT22;69649;53.712;9.680;2024-01-15T08:31:48;2.10;75.10
7876;DHT22;69649;53.712;9.680;2024-01-15T08:34:14;2.10;75.00
7876;DHT22;69649;53.712;9.680;2024-01-15T08:36:40;1.90;75.20
7876;DHT22;69649;53.712;9.680;2024-01-15T08:39:06;1.90;75.60
7876;DHT22;69649;53.712;9.680;2024-01-15T08:41:34;1.90;75.60
7876;DHT22;69649;53.712;9.680;2024-01-15T08:44:00;1.90;75.80
7876;DHT22;69649;53.712;9.680;2024-01-15T08:46:26;1.90;76.00
7876;DHT22;69649;53.712;9.680;2024-01-15T08:49:11;1.90;76.10
7876;DHT22;69649;53.712;9.680;2024-01-15T08:51:37;1.80;76.20
7876;DHT22;69649;53.712;9.680;2024-01-15T08:54:03;1.80;76.60
7876;DHT22;69649;53.712;9.680;2024-01-15T08:56:29;1.70;76.80
7876;DHT22;69649;53.712;9.680;2024-01-15T08:58:55;1.70;77.20
7876;DHT22;69649;53.712;9.680;2024-01-15T09:01:21;1.80;77.00
7876;DHT22;69649;53.712;9.680;2024-01-15T09:03:47;1.90;76.60
7876;DHT22;69649;53.712;9.680;2024-01-15T09:06:13;1.90;76.60
7876;DHT22;69649;53.712;9.680;2024-01-15T09:08:39;1.90;76.60
7876;DHT22;69649;53.712;9.680;2024-01-15T09:11:05;1.90;76.90
7876;DHT22;69649;53.712;9.680;2024-01-15T09:13:31;1.90;77.00
7876;DHT22;69649;53.712;9.680;2024-01-15T09:15:57;2.00;76.60
7876;DHT22;69649;53.712;9.680;2024-01-15T09:18:23;2.00;76.50
7876;DHT22;69649;53.712;9.680;2024-01-15T09:20:49;1.90;76.50
7876;DHT22;69649;53.712;9.680;2024-01-15T09:23:15;1.70;76.80
7876;DHT22;69649;53.712;9.680;2024-01-15T09:25:41;1.50;77.40
7876;DHT22;69649;53.712;9.680;2024-01-15T09:28:07;1.30;78.40
7876;DHT22;69649;53.712;9.680;2024-01-15T09:30:33;1.10;79.10
7876;DHT22;69649;53.712;9.680;2024-01-15T09:32:59;1.00;79.90
7876;DHT22;69649;53.712;9.680;2024-01-15T09:35:25;0.90;80.50
7876;DHT22;69649;53.712;9.680;2024-01-15T09:37:50;0.90;81.00
7876;DHT22;69649;53.712;9.680;2024-01-15T09:40:17;0.90;81.20
7876;DHT22;69649;53.712;9.680;2024-01-15T09:42:46;0.80;81.40
7876;DHT22;69649;53.712;9.680;2024-01-15T09:45:12;0.80;81.70
7876;DHT22;69649;53.712;9.680;2024-01-15T09:47:38;0.80;81.90
7876;DHT22;69649;53.712;9.680;2024-01-15T09:52:52;0.80;82.00
7876;DHT22;69649;53.712;9.680;2024-01-15T09:55:18;0.80;82.00
7876;DHT22;69649;53.712;9.680;2024-01-15T10:00:33;1.00;81.90
7876;DHT22;69649;53.712;9.680;2024-01-15T10:03:03;1.00;81.70
7876;DHT22;69649;53.712;9.680;2024-01-15T10:05:29;1.00;81.70
7876;DHT22;69649;53.712;9.680;2024-01-15T10:07:56;1.10;81.70
7876;DHT22;69649;53.712;9.680;2024-01-15T10:10:23;1.10;81.60
7876;DHT22;69649;53.712;9.680;2024-01-15T10:12:49;1.20;81.40
7876;DHT22;69649;53.712;9.680;2024-01-15T10:15:15;1.20;81.20
7876;DHT22;69649;53.712;9.680;2024-01-15T10:17:42;1.20;81.10
7876;DHT22;69649;53.712;9.680;2024-01-15T10:20:10;1.20;81.10
7876;DHT22;69649;53.712;9.680;2024-01-15T10:22:41;1.20;80.70
7876;DHT22;69649;53.712;9.680;2024-01-15T10:25:10;1.10;80.60
7876;DHT22;69649;53.712;9.680;2024-01-15T10:27:36;1.10;80.50
7876;DHT22;69649;53.712;9.680;2024-01-15T10:30:02;1.10;80.70
7876;DHT22;69649;53.712;9.680;2024-01-15T10:32:28;1.10;80.70
7876;DHT22;69649;53.712;9.680;2024-01-15T10:34:54;1.10;80.80
7876;DHT22;69649;53.712;9.680;2024-01-15T10:37:20;1.10;80.90
7876;DHT22;69649;53.712;9.680;2024-01-15T10:39:46;1.10;81.00
7876;DHT22;69649;53.712;9.680;2024-01-15T10:42:13;1.10;81.20
7876;DHT22;69649;53.712;9.680;2024-01-15T10:44:38;1.00;81.50
7876;DHT22;69649;53.712;9.680;2024-01-15T10:47:04;1.10;81.60
7876;DHT22;69649;53.712;9.680;2024-01-15T10:49:50;1.30;81.50
7876;DHT22;69649;53.712;9.680;2024-01-15T10:52:16;1.30;81.20
7876;DHT22;69649;53.712;9.680;2024-01-15T10:54:43;1.20;81.30
7876;DHT22;69649;53.712;9.680;2024-01-15T10:57:09;1.30;81.20
7876;DHT22;69649;53.712;9.680;2024-01-15T10:59:36;1.40;81.20
7876;DHT22;69649;53.712;9.680;2024-01-15T11:02:16;1.20;81.00
7876;DHT22;69649;53.712;9.680;2024-01-15T11:04:41;1.20;81.10
7876;DHT22;69649;53.712;9.680;2024-01-15T11:07:07;1.20;81.30
7876;DHT22;69649;53.712;9.680;2024-01-15T11:09:39;1.20;81.30
7876;DHT22;69649;53.712;9.680;2024-01-15T11:12:12;1.10;81.40
7876;DHT22;69649;53.712;9.680;2024-01-15T11:14:46;1.20;81.60
7876;DHT22;69649;53.712;9.680;2024-01-15T11:17:14;1.20;81.50
7876;DHT22;69649;53.712;9.680;2024-01-15T11:19:43;1.20;81.50
7876;DHT22;69649;53.712;9.680;2024-01-15T11:22:11;1.20;81.30
7876;DHT22;69649;53.712;9.680;2024-01-15T11:24:39;1.20;81.20
7876;DHT22;69649;53.712;9.680;2024-01-15T11:27:08;1.20;81.00
7876;DHT22;69649;53.712;9.680;2024-01-15T11:29:35;1.20;81.20
7876;DHT22;69649;53.712;9.680;2024-01-15T11:34:52;1.20;81.50
7876;DHT22;69649;53.712;9.680;2024-01-15T11:37:28;1.20;81.40
7876;DHT22;69649;53.712;9.680;2024-01-15T11:39:56;1.30;81.40
7876;DHT22;69649;53.712;9.680;2024-01-15T11:42:23;1.30;81.20
7876;DHT22;69649;53.712;9.680;2024-01-15T11:44:49;1.20;81.20
7876;DHT22;69649;53.712;9.680;2024-01-15T11:47:15;1.20;81.30
7876;DHT22;69649;53.712;9.680;2024-01-15T11:50:01;1.20;81.50
7876;DHT22;69649;53.712;9.680;2024-01-15T11:52:37;1.20;81.40
7876;DHT22;69649;53.712;9.680;2024-01-15T11:57:49;1.20;81.50
7876;DHT22;69649;53.712;9.680;2024-01-15T12:00:14;1.30;81.60
7876;DHT22;69649;53.712;9.680;2024-01-15T12:02:42;1.30;81.30
7876;DHT22;69649;53.712;9.680;2024-01-15T12:05:13;1.40;81.20
7876;DHT22;69649;53.712;9.680;2024-01-15T12:07:39;1.20;81.10
7876;DHT22;69649;53.712;9.680;2024-01-15T12:10:13;1.30;81.20
7876;DHT22;69649;53.712;9.680;2024-01-15T12:12:56;1.40;81.20
7876;DHT22;69649;53.712;9.680;2024-01-15T12:15:21;1.40;81.10
7876;DHT22;69649;53.712;9.680;2024-01-15T12:17:47;1.40;81.00
7876;DHT22;69649;53.712;9.680;2024-01-15T12:20:13;1.40;80.80
7876;DHT22;69649;53.712;9.680;2024-01-15T12:22:40;1.50;80.80
7876;DHT22;69649;53.712;9.680;2024-01-15T12:25:06;1.60;80.60
7876;DHT22;69649;53.712;9.680;2024-01-15T12:27:32;1.50;80.20
7876;DHT22;69649;53.712;9.680;2024-01-15T12:29:59;1.50;80.20
7876;DHT22;69649;53.712;9.680;2024-01-15T12:32:25;1.50;80.40
7876;DHT22;69649;53.712;9.680;2024-01-15T12:34:51;1.60;80.60
7876;DHT22;69649;53.712;9.680;2024-01-15T12:37:20;1.50;80.30
7876;DHT22;69649;53.712;9.680;2024-01-15T12:39:46;1.50;80.30
7876;DHT22;69649;53.712;9.680;2024-01-15T12:42:14;1.50;80.30
7876;DHT22;69649;53.712;9.680;2024-01-15T12:44:40;1.50;80.40
7876;DHT22;69649;53.712;9.680;2024-01-15T12:47:08;1.60;80.30
7876;DHT22;69649;53.712;9.680;2024-01-15T12:49:36;1.60;80.00
7876;DHT22;69649;53.712;9.680;2024-01-15T12:52:02;1.60;80.00
7876;DHT22;69649;53.712;9.680;2024-01-15T12:54:28;1.60;79.80
7876;DHT22;69649;53.712;9.680;2024-01-15T12:56:54;1.60;80.00
7876;DHT22;69649;53.712;9.680;2024-01-15T12:59:19;1.60;79.80
7876;DHT22;69649;53.712;9.680;2024-01-15T13:01:46;1.70;79.90
7876;DHT22;69649;53.712;9.680;2024-01-15T13:04:23;1.80;79.70
7876;DHT22;69649;53.712;9.680;2024-01-15T13:06:50;1.80;79.30
7876;DHT22;69649;53.712;9.680;2024-01-15T13:09:16;1.80;79.20
7876;DHT22;69649;53.712;9.680;2024-01-15T13:11:44;1.70;79.10
7876;DHT22;69649;53.712;9.680;2024-01-15T13:14:10;1.70;79.20
7876;DHT22;69649;53.712;9.680;2024-01-15T13:16:36;1.80;79.20
7876;DHT22;69649;53.712;9.680;2024-01-15T13:19:02;1.80;79.10
7876;DHT22;69649;53.712;9.680;2024-01-15T13:21:30;1.80;79.00
7876;DHT22;69649;53.712;9.680;2024-01-15T13:23:56;1.90;79.10
7876;DHT22;69649;53.712;9.680;2024-01-15T13:26:21;2.00;79.00
7876;DHT22;69649;53.712;9.680;2024-01-15T13:28:47;2.00;78.50
7876;DHT22;69649;53.712;9.680;2024-01-15T13:31:13;2.00;78.50
7876;DHT22;69649;53.712;9.680;2024-01-15T13:33:39;2.00;78.20
7876;DHT22;69649;53.712;9.680;2024-01-15T13:36:05;2.00;78.20
7876;DHT22;69649;53.712;9.680;2024-01-15T13:38:33;1.90;78.20
7876;DHT22;69649;53.712;9.680;2024-01-15T13:41:00;1.90;78.20
7876;DHT22;69649;53.712;9.680;2024-01-15T13:43:26;1.90;78.10
7876;DHT22;69649;53.712;9.680;2024-01-15T13:45:52;1.90;78.10
7876;DHT22;69649;53.712;9.680;2024-01-15T13:48:19;1.90;78.20
7876;DHT22;69649;53.712;9.680;2024-01-15T13:50:45;2.00;78.30
7876;DHT22;69649;53.712;9.680;2024-01-15T13:53:12;2.00;78.20
7876;DHT22;69649;53.712;9.680;2024-01-15T13:55:37;2.00;77.80
7876;DHT22;69649;53.712;9.680;2024-01-15T13:58:03;2.00;77.70
7876;DHT22;69649;53.712;9.680;2024-01-15T14:00:32;2.00;77.80
7876;DHT22;69649;53.712;9.680;2024-01-15T14:02:57;1.90;77.60
7876;DHT22;69649;53.712;9.680;2024-01-15T14:05:23;1.80;78.00
7876;DHT22;69649;53.712;9.680;2024-01-15T14:07:49;1.80;78.30
7876;DHT22;69649;53.712;9.680;2024-01-15T14:10:15;1.70;78.30
7876;DHT22;69649;53.712;9.680;2024-01-15T14:12:41;1.70;78.50
7876;DHT22;69649;53.712;9.680;2024-01-15T14:15:07;1.70;78.40
7876;DHT22;69649;53.712;9.680;2024-01-15T14:17:33;1.60;78.80
7876;DHT22;69649;53.712;9.680;2024-01-15T14:19:59;1.60;79.00
7876;DHT22;69649;53.712;9.680;2024-01-15T14:22:25;1.80;79.70
7876;DHT22;69649;53.712;9.680;2024-01-15T14:24:50;2.00;79.60
7876;DHT22;69649;53.712;9.680;2024-01-15T14:27:16;2.10;78.60
7876;DHT22;69649;53.712;9.680;2024-01-15T14:29:42;2.20;77.40
7876;DHT22;69649;53.712;9.680;2024-01-15T14:32:08;2.10;77.10
7876;DHT22;69649;53.712;9.680;2024-01-15T14:34:33;2.00;77.20
7876;DHT22;69649;53.712;9.680;2024-01-15T14:37:01;2.00;77.00
7876;DHT22;69649;53.712;9.680;2024-01-15T14:39:27;1.90;77.10
7876;DHT22;69649;53.712;9.680;2024-01-15T14:41:53;1.90;77.10
7876;DHT22;69649;53.712;9.680;2024-01-15T14:44:19;1.80;77.20
7876;DHT22;69649;53.712;9.680;2024-01-15T14:46:46;1.70;77.50
7876;DHT22;69649;53.712;9.680;2024-01-15T14:49:13;1.60;77.50
7876;DHT22;69649;53.712;9.680;2024-01-15T14:51:40;1.50;77.50
7876;DHT22;69649;53.712;9.680;2024-01-15T14:54:05;1.50;77.70
7876;DHT22;69649;53.712;9.680;2024-01-15T14:56:32;1.40;77.80
7876;DHT22;69649;53.712;9.680;2024-01-15T14:58:59;1.30;78.00
7876;DHT22;69649;53.712;9.680;2024-01-15T15:01:24;1.40;78.20
7876;DHT22;69649;53.712;9.680;2024-01-15T15:03:50;1.20;78.20
7876;DHT22;69649;53.712;9.680;2024-01-15T15:06:16;1.10;78.10
7876;DHT22;69649;53.712;9.680;2024-01-15T15:08:41;1.10;78.40
7876;DHT22;69649;53.712;9.680;2024-01-15T15:11:07;1.10;78.40
7876;DHT22;69649;53.712;9.680;2024-01-15T15:13:34;1.10;78.40
7876;DHT22;69649;53.712;9.680;2024-01-15T15:16:00;1.00;78.30
7876;DHT22;69649;53.712;9.680;2024-01-15T15:18:28;1.00;78.40
7876;DHT22;69649;53.712;9.680;2024-01-15T15:20:55;1.00;78.40
7876;DHT22;69649;53.712;9.680;2024-01-15T15:23:21;1.00;78.30
7876;DHT22;69649;53.712;9.680;2024-01-15T15:25:47;1.00;78.20
7876;DHT22;69649;53.712;9.680;2024-01-15T15:28:13;0.80;78.20
7876;DHT22;69649;53.712;9.680;2024-01-15T15:30:40;0.90;78.50
7876;DHT22;69649;53.712;9.680;2024-01-15T15:33:06;0.80;78.40
7876;DHT22;69649;53.712;9.680;2024-01-15T15:35:31;0.80;78.50
7876;DHT22;69649;53.712;9.680;2024-01-15T15:37:57;0.80;78.40
7876;DHT22;69649;53.712;9.680;2024-01-15T15:40:23;0.70;78.50
7876;DHT22;69649;53.712;9.680;2024-01-15T15:42:52;0.70;78.70
7876;DHT22;69649;53.712;9.680;2024-01-15T15:45:18;0.60;78.60
7876;DHT22;69649;53.712;9.680;2024-01-15T15:47:44;0.60;78.90
7876;DHT22;69649;53.712;9.680;2024-01-15T15:50:10;0.50;79.10
7876;DHT22;69649;53.712;9.680;2024-01-15T15:52:35;0.40;79.20
7876;DHT22;69649;53.712;9.680;2024-01-15T15:55:01;0.50;79.50
7876;DHT22;69649;53.712;9.680;2024-01-15T15:57:28;0.40;79.40
7876;DHT22;69649;53.712;9.680;2024-01-15T15:59:55;0.40;79.40
7876;DHT22;69649;53.712;9.680;2024-01-15T16:02:21;0.40;79.30
7876;DHT22;69649;53.712;9.680;2024-01-15T16:04:47;0.40;79.20
7876;DHT22;69649;53.712;9.680;2024-01-15T16:07:12;0.30;79.30
7876;DHT22;69649;53.712;9.680;2024-01-15T16:09:40;0.20;79.40
7876;DHT22;69649;53.712;9.680;2024-01-15T16:12:07;0.20;79.60
7876;DHT22;69649;53.712;9.680;2024-01-15T16:14:34;0.20;79.60